createdAt,value
2019-03-20T00:00:41.886Z,75.38
2019-03-20T00:01:43.941Z,75.28
2019-03-20T00:02:41.801Z,75.47
2019-03-20T00:03:41.780Z,75.57
2019-03-20T00:04:49.638Z,75.38
2019-03-20T00:05:41.738Z,75.76
2019-03-20T00:06:41.713Z,75.38
2019-03-20T00:07:41.695Z,75.47
2019-03-20T00:08:41.677Z,75.47
2019-03-20T00:09:41.655Z,75.19
2019-03-20T00:10:41.632Z,75.47
2019-03-20T00:11:41.618Z,75.19
2019-03-20T00:12:41.595Z,75.47
2019-03-20T00:13:41.572Z,75.85
2019-03-20T00:14:41.547Z,75.57
2019-03-20T00:15:41.528Z,75.66
2019-03-20T00:16:41.508Z,76.04
2019-03-20T00:17:41.530Z,75.95
2019-03-20T00:18:41.465Z,76.23
2019-03-20T00:19:41.445Z,76.14
2019-03-20T00:20:41.423Z,76.04
2019-03-20T00:21:41.404Z,76.04
2019-03-20T00:22:43.194Z,76.04
2019-03-20T00:23:41.362Z,75.95
2019-03-20T00:24:41.342Z,75.76
2019-03-20T00:25:41.316Z,75.76
2019-03-20T00:26:41.295Z,76.04
2019-03-20T00:27:41.287Z,76.04
2019-03-20T00:28:41.254Z,76.23
2019-03-20T00:29:41.229Z,76.51
2019-03-20T00:30:41.211Z,76.14
2019-03-20T00:31:41.191Z,76.42
2019-03-20T00:32:41.168Z,76.32
2019-03-20T00:33:41.150Z,76.42
2019-03-20T00:34:41.125Z,76.32
2019-03-20T00:35:41.108Z,76.14
2019-03-20T00:36:41.084Z,76.14
2019-03-20T00:37:41.068Z,76.70
2019-03-20T00:38:41.036Z,76.42
2019-03-20T00:39:41.020Z,76.42
2019-03-20T00:40:41.001Z,76.70
2019-03-20T00:41:40.986Z,76.70
2019-03-20T00:42:40.963Z,76.42
2019-03-20T00:43:40.935Z,76.42
2019-03-20T00:44:40.916Z,76.70
2019-03-20T00:45:40.893Z,76.70
2019-03-20T00:46:40.869Z,76.79
2019-03-20T00:47:40.851Z,76.89
2019-03-20T00:48:40.830Z,76.89
2019-03-20T00:49:40.812Z,76.79
2019-03-20T00:50:40.787Z,76.79
2019-03-20T00:51:40.765Z,76.79
2019-03-20T00:52:40.748Z,76.79
2019-03-20T00:53:40.723Z,76.23
2019-03-20T00:54:40.704Z,76.70
2019-03-20T00:55:40.684Z,76.79
2019-03-20T00:56:40.663Z,76.89
2019-03-20T00:57:40.639Z,76.79
2019-03-20T00:58:40.619Z,76.70
2019-03-20T00:59:40.598Z,76.79
2019-03-20T01:00:40.576Z,76.70
2019-03-20T01:01:40.557Z,76.61
2019-03-20T01:02:40.533Z,76.70
2019-03-20T01:03:40.512Z,76.70
2019-03-20T01:04:40.490Z,76.98
2019-03-20T01:05:40.481Z,76.98
2019-03-20T01:06:40.464Z,77.55
2019-03-20T01:07:40.431Z,77.45
2019-03-20T01:08:40.406Z,77.55
2019-03-20T01:09:40.383Z,77.26
2019-03-20T01:10:40.361Z,77.17
2019-03-20T01:11:40.343Z,77.26
2019-03-20T01:12:40.320Z,77.36
2019-03-20T01:13:40.299Z,77.36
2019-03-20T01:14:40.275Z,77.45
2019-03-20T01:15:40.258Z,77.17
2019-03-20T01:16:40.236Z,77.17
2019-03-20T01:17:40.216Z,77.36
2019-03-20T01:18:40.190Z,77.26
2019-03-20T01:19:40.170Z,76.98
2019-03-20T01:20:40.148Z,76.98
2019-03-20T01:21:40.122Z,77.36
2019-03-20T01:22:40.106Z,77.55
2019-03-20T01:23:40.087Z,77.45
2019-03-20T01:24:40.064Z,77.45
2019-03-20T01:25:40.040Z,77.08
2019-03-20T01:26:40.024Z,77.36
2019-03-20T01:27:40.006Z,77.36
2019-03-20T01:28:39.981Z,77.45
2019-03-20T01:29:39.958Z,77.74
2019-03-20T01:30:39.934Z,77.93
2019-03-20T01:31:39.916Z,77.55
2019-03-20T01:32:39.908Z,77.83
2019-03-20T01:33:39.874Z,77.55
2019-03-20T01:34:39.851Z,77.36
2019-03-20T01:35:39.836Z,77.83
2019-03-20T01:36:39.807Z,77.55
2019-03-20T01:37:39.785Z,78.02
2019-03-20T01:38:39.768Z,78.21
2019-03-20T01:39:39.744Z,77.93
2019-03-20T01:40:40.578Z,78.02
2019-03-20T01:41:39.703Z,77.64
2019-03-20T01:42:39.677Z,77.93
2019-03-20T01:43:39.656Z,78.02
2019-03-20T01:44:39.637Z,78.21
2019-03-20T01:45:39.613Z,78.12
2019-03-20T01:46:39.591Z,78.12
2019-03-20T01:47:39.572Z,78.21
2019-03-20T01:48:39.553Z,78.12
2019-03-20T01:49:39.529Z,78.12
2019-03-20T01:50:39.506Z,78.12
2019-03-20T01:51:39.484Z,78.02
2019-03-20T01:52:39.468Z,78.02
2019-03-20T01:53:39.446Z,78.02
2019-03-20T01:54:39.421Z,78.02
2019-03-20T01:55:39.402Z,78.31
2019-03-20T01:56:39.377Z,78.31
2019-03-20T01:57:39.356Z,78.17
2019-03-20T01:58:39.334Z,78.02
2019-03-20T01:59:39.314Z,78.78
2019-03-20T02:00:39.295Z,78.78
2019-03-20T02:01:39.268Z,78.78
2019-03-20T02:02:39.249Z,78.87
2019-03-20T02:03:40.898Z,78.68
2019-03-20T02:04:39.206Z,78.68
2019-03-20T02:05:39.214Z,78.83
2019-03-20T02:06:39.160Z,78.68
2019-03-20T02:07:39.136Z,78.68
2019-03-20T02:08:39.116Z,78.68
2019-03-20T02:09:39.098Z,78.78
2019-03-20T02:10:39.074Z,78.78
2019-03-20T02:11:39.057Z,78.64
2019-03-20T02:12:39.035Z,78.83
2019-03-20T02:13:39.014Z,78.97
2019-03-20T02:14:38.991Z,78.87
2019-03-20T02:15:39.763Z,78.87
2019-03-20T02:16:38.941Z,78.78
2019-03-20T02:17:38.924Z,78.92
2019-03-20T02:18:38.904Z,78.02
2019-03-20T02:19:38.882Z,78.78
2019-03-20T02:20:38.860Z,78.97
2019-03-20T02:21:38.837Z,78.87
2019-03-20T02:22:38.817Z,78.87
2019-03-20T02:23:38.795Z,78.74
2019-03-20T02:24:38.774Z,78.68
2019-03-20T02:25:38.751Z,78.68
2019-03-20T02:26:38.722Z,78.78
2019-03-20T02:27:38.702Z,78.68
2019-03-20T02:28:38.691Z,78.68
2019-03-20T02:29:38.664Z,78.68
2019-03-20T02:30:38.645Z,78.68
2019-03-20T02:31:38.622Z,78.50
2019-03-20T02:32:38.597Z,78.50
2019-03-20T02:33:38.595Z,78.40
2019-03-20T02:34:38.560Z,78.55
2019-03-20T02:35:50.536Z,78.50
2019-03-20T02:36:38.514Z,78.78
2019-03-20T02:37:38.492Z,78.97
2019-03-20T02:38:38.467Z,78.59
2019-03-20T02:39:38.452Z,78.64
2019-03-20T02:40:38.426Z,78.83
2019-03-20T02:41:38.404Z,78.92
2019-03-20T02:42:38.381Z,78.83
2019-03-20T02:43:38.355Z,78.64
2019-03-20T02:44:38.350Z,78.64
2019-03-20T02:45:38.318Z,78.55
2019-03-20T02:46:38.296Z,78.74
2019-03-20T02:47:38.276Z,78.83
2019-03-20T02:48:38.252Z,78.64
2019-03-20T02:49:38.230Z,78.55
2019-03-20T02:50:38.208Z,78.74
2019-03-20T02:51:38.201Z,78.64
2019-03-20T02:52:38.167Z,79.21
2019-03-20T02:53:38.143Z,78.64
2019-03-20T02:54:38.123Z,78.55
2019-03-20T02:55:38.100Z,79.02
2019-03-20T02:56:38.079Z,79.21
2019-03-20T02:57:38.058Z,79.21
2019-03-20T02:58:38.036Z,79.11
2019-03-20T02:59:38.013Z,78.83
2019-03-20T03:00:37.996Z,78.83
2019-03-20T03:01:37.970Z,79.11
2019-03-20T03:02:37.944Z,79.02
2019-03-20T03:03:37.925Z,79.02
2019-03-20T03:04:37.902Z,78.92
2019-03-20T03:05:37.878Z,79.02
2019-03-20T03:06:37.866Z,79.02
2019-03-20T03:07:37.839Z,78.64
2019-03-20T03:08:37.815Z,79.11
2019-03-20T03:09:37.801Z,79.11
2019-03-20T03:10:37.787Z,78.92
2019-03-20T03:11:37.766Z,78.92
2019-03-20T03:12:37.729Z,78.92
2019-03-20T03:13:37.707Z,78.92
2019-03-20T03:14:37.683Z,79.78
2019-03-20T03:15:37.662Z,79.68
2019-03-20T03:16:37.641Z,79.78
2019-03-20T03:17:37.621Z,79.78
2019-03-20T03:18:37.600Z,79.59
2019-03-20T03:19:37.575Z,79.49
2019-03-20T03:20:37.564Z,79.68
2019-03-20T03:21:37.532Z,79.49
2019-03-20T03:22:37.511Z,79.49
2019-03-20T03:23:37.491Z,79.59
2019-03-20T03:24:37.468Z,79.59
2019-03-20T03:25:37.443Z,79.59
2019-03-20T03:26:37.428Z,79.59
2019-03-20T03:27:37.417Z,79.68
2019-03-20T03:28:37.382Z,79.59
2019-03-20T03:29:37.361Z,79.59
2019-03-20T03:30:37.344Z,79.40
2019-03-20T03:31:37.320Z,79.59
2019-03-20T03:32:37.398Z,79.59
2019-03-20T03:33:37.271Z,79.59
2019-03-20T03:34:37.262Z,79.68
2019-03-20T03:35:37.228Z,79.59
2019-03-20T03:36:37.205Z,79.68
2019-03-20T03:37:37.189Z,79.40
2019-03-20T03:38:37.168Z,79.59
2019-03-20T03:39:37.148Z,79.59
2019-03-20T03:40:37.142Z,79.49
2019-03-20T03:41:37.092Z,79.49
2019-03-20T03:42:37.073Z,79.40
2019-03-20T03:43:37.056Z,79.49
2019-03-20T03:44:37.035Z,79.49
2019-03-20T03:45:37.019Z,79.59
2019-03-20T03:46:36.987Z,79.59
2019-03-20T03:47:36.974Z,79.30
2019-03-20T03:48:36.945Z,79.49
2019-03-20T03:49:36.922Z,79.68
2019-03-20T03:50:36.917Z,79.68
2019-03-20T03:51:36.879Z,79.87
2019-03-20T03:52:36.857Z,79.68
2019-03-20T03:53:36.829Z,79.68
2019-03-20T03:54:36.813Z,79.97
2019-03-20T03:55:36.790Z,80.06
2019-03-20T03:56:36.783Z,79.87
2019-03-20T03:57:36.746Z,80.06
2019-03-20T03:58:36.725Z,79.78
2019-03-20T03:59:36.706Z,80.15
2019-03-20T04:00:36.683Z,80.25
2019-03-20T04:01:36.660Z,79.78
2019-03-20T04:02:36.645Z,80.06
2019-03-20T04:03:36.617Z,79.78
2019-03-20T04:04:36.649Z,80.15
2019-03-20T04:05:36.574Z,80.53
2019-03-20T04:06:36.558Z,80.63
2019-03-20T04:07:36.534Z,80.63
2019-03-20T04:08:36.507Z,80.63
2019-03-20T04:09:36.484Z,80.53
2019-03-20T04:10:36.460Z,80.25
2019-03-20T04:11:36.444Z,80.44
2019-03-20T04:12:36.417Z,80.63
2019-03-20T04:13:36.400Z,80.25
2019-03-20T04:14:36.377Z,80.25
2019-03-20T04:15:36.597Z,80.34
2019-03-20T04:16:36.334Z,80.25
2019-03-20T04:17:36.318Z,80.15
2019-03-20T04:18:36.300Z,80.34
2019-03-20T04:19:36.265Z,80.53
2019-03-20T04:20:36.243Z,80.44
2019-03-20T04:21:36.222Z,80.44
2019-03-20T04:22:36.201Z,80.44
2019-03-20T04:23:36.179Z,80.25
2019-03-20T04:24:36.154Z,80.82
2019-03-20T04:25:36.135Z,80.53
2019-03-20T04:26:36.115Z,80.63
2019-03-20T04:27:36.094Z,80.53
2019-03-20T04:28:36.072Z,80.53
2019-03-20T04:29:36.046Z,80.63
2019-03-20T04:30:36.026Z,80.53
2019-03-20T04:31:36.004Z,80.72
2019-03-20T04:32:35.980Z,80.82
2019-03-20T04:33:35.963Z,80.82
2019-03-20T04:34:35.940Z,80.53
2019-03-20T04:35:35.918Z,80.72
2019-03-20T04:36:47.202Z,80.53
2019-03-20T04:37:35.872Z,80.53
2019-03-20T04:38:35.846Z,80.91
2019-03-20T04:39:35.830Z,80.72
2019-03-20T04:40:35.811Z,80.72
2019-03-20T04:41:35.786Z,80.63
2019-03-20T04:42:35.762Z,80.25
2019-03-20T04:43:35.737Z,80.44
2019-03-20T04:44:35.720Z,80.53
2019-03-20T04:45:35.691Z,80.44
2019-03-20T04:46:35.684Z,80.44
2019-03-20T04:47:35.648Z,80.44
2019-03-20T04:48:35.635Z,80.44
2019-03-20T04:49:35.606Z,80.34
2019-03-20T04:50:35.595Z,80.06
2019-03-20T04:51:35.567Z,80.63
2019-03-20T04:52:35.541Z,80.63
2019-03-20T04:53:35.515Z,80.72
2019-03-20T04:54:35.494Z,80.72
2019-03-20T04:55:35.474Z,80.82
2019-03-20T04:56:35.458Z,80.72
2019-03-20T04:57:35.426Z,80.63
2019-03-20T04:58:35.406Z,80.72
2019-03-20T04:59:35.384Z,80.82
2019-03-20T05:00:35.357Z,80.91
2019-03-20T05:01:35.342Z,80.91
2019-03-20T05:02:35.318Z,80.72
2019-03-20T05:03:35.296Z,81.29
2019-03-20T05:04:35.275Z,80.91
2019-03-20T05:05:35.255Z,81.01
2019-03-20T05:06:35.230Z,81.20
2019-03-20T05:07:35.209Z,81.29
2019-03-20T05:08:35.188Z,81.29
2019-03-20T05:09:35.166Z,81.01
2019-03-20T05:10:35.142Z,81.48
2019-03-20T05:11:35.123Z,81.29
2019-03-20T05:12:35.102Z,81.76
2019-03-20T05:13:35.078Z,81.76
2019-03-20T05:14:35.055Z,81.48
2019-03-20T05:15:35.041Z,81.57
2019-03-20T05:16:35.016Z,81.48
2019-03-20T05:17:34.992Z,81.57
2019-03-20T05:18:34.967Z,81.67
2019-03-20T05:19:34.944Z,81.48
2019-03-20T05:20:34.927Z,81.20
2019-03-20T05:21:34.902Z,81.48
2019-03-20T05:22:34.883Z,81.48
2019-03-20T05:23:34.872Z,81.57
2019-03-20T05:24:34.833Z,81.76
2019-03-20T05:25:34.814Z,81.57
2019-03-20T05:26:34.794Z,81.76
2019-03-20T05:27:34.767Z,81.85
2019-03-20T05:28:34.746Z,81.85
2019-03-20T05:29:34.725Z,81.48
2019-03-20T05:30:34.703Z,81.67
2019-03-20T05:31:34.692Z,81.76
2019-03-20T05:32:34.663Z,81.76
2019-03-20T05:33:34.637Z,81.95
2019-03-20T05:34:34.614Z,81.76
2019-03-20T05:35:34.594Z,81.76
2019-03-20T05:36:34.574Z,81.48
2019-03-20T05:37:34.550Z,81.57
2019-03-20T05:38:34.525Z,81.38
2019-03-20T05:39:34.508Z,81.48
2019-03-20T05:40:34.486Z,81.76
2019-03-20T05:41:34.470Z,82.42
2019-03-20T05:42:34.440Z,81.48
2019-03-20T05:43:34.432Z,81.76
2019-03-20T05:44:34.396Z,82.42
2019-03-20T05:45:34.372Z,82.32
2019-03-20T05:46:34.354Z,82.42
2019-03-20T05:47:34.329Z,81.57
2019-03-20T05:48:34.314Z,82.14
2019-03-20T05:49:34.288Z,82.42
2019-03-20T05:50:34.263Z,82.42
2019-03-20T05:51:34.243Z,82.42
2019-03-20T05:52:34.219Z,82.14
2019-03-20T05:53:34.196Z,82.32
2019-03-20T05:54:34.175Z,82.32
2019-03-20T05:55:34.155Z,82.14
2019-03-20T05:56:34.151Z,82.14
2019-03-20T05:57:34.111Z,81.48
2019-03-20T05:58:34.087Z,82.23
2019-03-20T05:59:34.067Z,82.23
2019-03-20T06:00:34.041Z,82.42
2019-03-20T06:01:34.013Z,82.42
2019-03-20T06:02:34.000Z,82.42
2019-03-20T06:03:33.979Z,82.32
2019-03-20T06:04:33.955Z,82.42
2019-03-20T06:05:33.968Z,82.42
2019-03-20T06:06:33.914Z,82.32
2019-03-20T06:07:33.890Z,82.14
2019-03-20T06:08:33.869Z,82.32
2019-03-20T06:09:33.844Z,82.32
2019-03-20T06:10:33.826Z,82.14
2019-03-20T06:11:33.803Z,82.14
2019-03-20T06:12:33.782Z,82.32
2019-03-20T06:13:33.760Z,81.95
2019-03-20T06:14:33.741Z,81.95
2019-03-20T06:15:33.720Z,82.32
2019-03-20T06:16:33.696Z,82.42
2019-03-20T06:17:33.672Z,82.32
2019-03-20T06:18:33.653Z,82.32
2019-03-20T06:19:33.631Z,82.23
2019-03-20T06:20:33.919Z,82.32
2019-03-20T06:21:33.588Z,82.42
2019-03-20T06:22:33.564Z,82.37
2019-03-20T06:23:33.542Z,82.56
2019-03-20T06:24:33.520Z,82.46
2019-03-20T06:25:33.509Z,82.46
2019-03-20T06:26:33.476Z,82.65
2019-03-20T06:27:33.456Z,82.56
2019-03-20T06:28:33.438Z,82.46
2019-03-20T06:29:33.414Z,82.56
2019-03-20T06:30:33.401Z,82.28
2019-03-20T06:31:33.371Z,82.56
2019-03-20T06:32:33.351Z,82.28
2019-03-20T06:33:33.326Z,82.56
2019-03-20T06:34:33.307Z,82.56
2019-03-20T06:35:33.287Z,82.46
2019-03-20T06:36:33.265Z,82.37
2019-03-20T06:37:33.245Z,82.46
2019-03-20T06:38:33.223Z,82.37
2019-03-20T06:39:33.202Z,82.56
2019-03-20T06:40:33.190Z,82.60
2019-03-20T06:41:33.159Z,82.60
2019-03-20T06:42:33.147Z,82.31
2019-03-20T06:43:33.121Z,82.60
2019-03-20T06:44:33.101Z,82.69
2019-03-20T06:45:33.078Z,82.60
2019-03-20T06:46:33.056Z,82.50
2019-03-20T06:47:33.040Z,82.60
2019-03-20T06:48:33.016Z,82.50
2019-03-20T06:49:32.996Z,82.22
2019-03-20T06:50:32.986Z,82.60
2019-03-20T06:51:32.957Z,82.50
2019-03-20T06:52:32.934Z,82.60
2019-03-20T06:53:32.915Z,82.60
2019-03-20T06:54:32.897Z,82.50
2019-03-20T06:55:32.875Z,82.50
2019-03-20T06:56:32.857Z,82.60
2019-03-20T06:57:32.837Z,82.64
2019-03-20T06:58:32.813Z,82.83
2019-03-20T06:59:32.796Z,82.64
2019-03-20T07:00:32.779Z,82.64
2019-03-20T07:01:32.753Z,82.64
2019-03-20T07:02:32.750Z,82.64
2019-03-20T07:03:32.715Z,82.45
2019-03-20T07:04:32.709Z,82.45
2019-03-20T07:05:32.680Z,82.64
2019-03-20T07:06:32.651Z,82.54
2019-03-20T07:07:43.183Z,82.45
2019-03-20T07:08:32.614Z,82.54
2019-03-20T07:09:32.591Z,82.73
2019-03-20T07:10:32.574Z,83.02
2019-03-20T07:11:32.553Z,82.73
2019-03-20T07:12:32.538Z,82.45
2019-03-20T07:13:32.514Z,82.40
2019-03-20T07:14:32.495Z,82.50
2019-03-20T07:15:32.476Z,82.40
2019-03-20T07:16:32.453Z,82.68
2019-03-20T07:17:32.435Z,82.50
2019-03-20T07:18:32.417Z,82.68
2019-03-20T07:19:32.398Z,82.68
2019-03-20T07:20:32.381Z,82.59
2019-03-20T07:21:32.358Z,82.59
2019-03-20T07:22:32.339Z,82.59
2019-03-20T07:23:32.322Z,82.44
2019-03-20T07:24:32.300Z,82.72
2019-03-20T07:25:32.281Z,82.44
2019-03-20T07:26:32.263Z,82.34
2019-03-20T07:27:32.243Z,82.34
2019-03-20T07:28:32.224Z,82.34
2019-03-20T07:29:32.207Z,82.72
2019-03-20T07:30:32.187Z,82.53
2019-03-20T07:31:32.172Z,82.72
2019-03-20T07:32:32.149Z,82.67
2019-03-20T07:33:32.130Z,82.20
2019-03-20T07:34:32.110Z,81.92
2019-03-20T07:35:32.093Z,82.01
2019-03-20T07:36:32.077Z,82.20
2019-03-20T07:37:33.678Z,81.72
2019-03-20T07:38:32.038Z,81.82
2019-03-20T07:39:32.019Z,81.86
2019-03-20T07:40:32.005Z,81.48
2019-03-20T07:41:31.984Z,81.38
2019-03-20T07:42:31.965Z,81.95
2019-03-20T07:43:31.943Z,81.86
2019-03-20T07:44:31.928Z,81.95
2019-03-20T07:45:31.910Z,81.95
2019-03-20T07:46:31.891Z,81.67
2019-03-20T07:47:31.879Z,81.48
2019-03-20T07:48:31.854Z,81.52
2019-03-20T07:49:31.838Z,81.43
2019-03-20T07:50:31.824Z,81.43
2019-03-20T07:51:31.806Z,81.14
2019-03-20T07:52:31.785Z,81.05
2019-03-20T07:53:31.766Z,80.99
2019-03-20T07:54:31.750Z,81.09
2019-03-20T07:55:31.735Z,80.99
2019-03-20T07:56:31.712Z,80.71
2019-03-20T07:57:31.695Z,80.62
2019-03-20T07:58:31.680Z,80.80
2019-03-20T07:59:31.662Z,80.62
2019-03-20T08:00:31.646Z,80.99
2019-03-20T08:01:31.628Z,80.43
2019-03-20T08:02:31.611Z,80.08
2019-03-20T08:03:31.592Z,79.99
2019-03-20T08:04:31.576Z,79.99
2019-03-20T08:05:31.559Z,79.42
2019-03-20T08:06:31.541Z,79.42
2019-03-20T08:07:31.527Z,79.23
2019-03-20T08:08:31.509Z,79.23
2019-03-20T08:09:31.564Z,78.80
2019-03-20T08:10:31.477Z,78.89
2019-03-20T08:11:31.462Z,79.08
2019-03-20T08:12:31.444Z,78.61
2019-03-20T08:13:31.427Z,78.51
2019-03-20T08:14:31.410Z,78.03
2019-03-20T08:15:31.397Z,78.42
2019-03-20T08:16:31.379Z,78.08
2019-03-20T08:17:31.358Z,77.22
2019-03-20T08:18:31.347Z,77.89
2019-03-20T08:19:31.336Z,77.31
2019-03-20T08:20:31.316Z,77.22
2019-03-20T08:21:31.290Z,77.12
2019-03-20T08:22:31.283Z,77.07
2019-03-20T08:23:31.266Z,76.78
2019-03-20T08:24:31.253Z,76.59
2019-03-20T08:25:31.241Z,76.50
2019-03-20T08:26:31.220Z,76.31
2019-03-20T08:27:31.206Z,75.59
2019-03-20T08:28:31.189Z,76.06
2019-03-20T08:29:31.174Z,75.40
2019-03-20T08:30:31.157Z,74.92
2019-03-20T08:31:31.142Z,75.05
2019-03-20T08:32:31.128Z,75.05
2019-03-20T08:33:31.119Z,74.48
2019-03-20T08:34:31.096Z,74.80
2019-03-20T08:35:31.085Z,74.33
2019-03-20T08:36:31.069Z,74.43
2019-03-20T08:37:31.052Z,74.24
2019-03-20T08:38:31.049Z,73.80
2019-03-20T08:39:31.022Z,73.41
2019-03-20T08:40:31.004Z,73.13
2019-03-20T08:41:30.996Z,72.88
2019-03-20T08:42:30.981Z,72.60
2019-03-20T08:43:30.969Z,72.02
2019-03-20T08:44:30.952Z,71.58
2019-03-20T08:45:30.936Z,71.30
2019-03-20T08:46:30.924Z,70.72
2019-03-20T08:47:30.910Z,70.72
2019-03-20T08:48:30.899Z,70.72
2019-03-20T08:49:30.886Z,70.28
2019-03-20T08:50:30.871Z,70.19
2019-03-20T08:51:30.874Z,69.81
2019-03-20T08:52:30.842Z,69.04
2019-03-20T08:53:30.828Z,68.41
2019-03-20T08:54:30.818Z,68.32
2019-03-20T08:55:30.809Z,68.54
2019-03-20T08:56:30.790Z,68.26
2019-03-20T08:57:30.775Z,67.49
2019-03-20T08:58:30.762Z,67.05
2019-03-20T08:59:30.746Z,66.85
2019-03-20T09:00:30.736Z,66.79
2019-03-20T09:01:30.724Z,66.41
2019-03-20T09:02:30.714Z,66.13
2019-03-20T09:03:30.696Z,65.68
2019-03-20T09:04:30.690Z,65.30
2019-03-20T09:05:30.677Z,64.53
2019-03-20T09:06:30.661Z,63.51
2019-03-20T09:07:30.647Z,63.42
2019-03-20T09:08:30.636Z,63.13
2019-03-20T09:09:30.626Z,63.32
2019-03-20T09:10:30.616Z,62.30
2019-03-20T09:11:30.599Z,61.91
2019-03-20T09:12:30.594Z,61.63
2019-03-20T09:13:30.581Z,60.86
2019-03-20T09:14:30.594Z,60.13
2019-03-20T09:15:30.558Z,60.13
2019-03-20T09:16:30.544Z,59.65
2019-03-20T09:17:30.528Z,59.55
2019-03-20T09:18:30.520Z,59.20
2019-03-20T09:19:30.511Z,58.72
2019-03-20T09:20:30.497Z,57.86
2019-03-20T09:21:30.486Z,57.21
2019-03-20T09:22:30.479Z,57.12
2019-03-20T09:23:30.466Z,56.16
2019-03-20T09:24:30.458Z,55.68
2019-03-20T09:25:30.444Z,55.52
2019-03-20T09:26:30.433Z,54.75
2019-03-20T09:27:30.421Z,54.85
2019-03-20T09:28:30.411Z,53.70
2019-03-20T09:29:36.049Z,53.72
2019-03-20T09:30:30.393Z,52.95
2019-03-20T09:31:30.380Z,52.57
2019-03-20T09:32:30.372Z,51.90
2019-03-20T09:33:30.359Z,51.32
2019-03-20T09:34:30.349Z,51.32
2019-03-20T09:35:30.338Z,50.84
2019-03-20T09:36:30.330Z,50.87
2019-03-20T09:37:30.317Z,50.49
2019-03-20T09:38:30.307Z,50.49
2019-03-20T09:39:30.331Z,50.20
2019-03-20T09:40:30.288Z,50.23
2019-03-20T09:41:30.280Z,50.23
2019-03-20T09:42:30.269Z,50.42
2019-03-20T09:43:30.265Z,49.77
2019-03-20T09:44:30.248Z,49.00
2019-03-20T09:45:30.239Z,47.66
2019-03-20T09:46:30.231Z,46.59
2019-03-20T09:47:30.224Z,46.79
2019-03-20T09:48:30.212Z,46.04
2019-03-20T09:49:30.202Z,45.76
2019-03-20T09:50:30.195Z,45.76
2019-03-20T09:51:30.193Z,45.66
2019-03-20T09:52:30.187Z,45.97
2019-03-20T09:53:30.165Z,45.78
2019-03-20T09:54:30.175Z,45.13
2019-03-20T09:55:30.149Z,43.97
2019-03-20T09:56:30.138Z,42.91
2019-03-20T09:57:30.129Z,41.76
2019-03-20T09:58:30.122Z,41.95
2019-03-20T09:59:30.118Z,41.95
2019-03-20T10:00:30.104Z,41.95
2019-03-20T10:01:30.096Z,40.30
2019-03-20T10:02:30.088Z,39.72
2019-03-20T10:03:30.082Z,40.20
2019-03-20T10:04:30.070Z,40.88
2019-03-20T10:05:30.063Z,40.88
2019-03-20T10:06:30.280Z,40.78
2019-03-20T10:07:30.046Z,40.58
2019-03-20T10:08:30.039Z,40.30
2019-03-20T10:09:30.029Z,40.41
2019-03-20T10:10:30.020Z,40.41
2019-03-20T10:11:30.018Z,40.51
2019-03-20T10:12:30.009Z,40.22
2019-03-20T10:13:29.994Z,39.66
2019-03-20T10:14:29.987Z,38.53
2019-03-20T10:15:29.979Z,38.62
2019-03-20T10:16:29.971Z,38.62
2019-03-20T10:17:29.962Z,38.64
2019-03-20T10:18:29.978Z,38.45
2019-03-20T10:19:29.948Z,38.74
2019-03-20T10:20:29.981Z,38.37
2019-03-20T10:21:29.935Z,37.70
2019-03-20T10:22:29.925Z,37.12
2019-03-20T10:23:29.917Z,36.83
2019-03-20T10:24:29.909Z,36.85
2019-03-20T10:25:29.901Z,35.58
2019-03-20T10:26:29.898Z,35.00
2019-03-20T10:27:29.887Z,34.42
2019-03-20T10:28:29.883Z,34.32
2019-03-20T10:29:29.876Z,34.80
2019-03-20T10:30:29.872Z,34.80
2019-03-20T10:31:29.863Z,34.53
2019-03-20T10:32:29.855Z,34.53
2019-03-20T10:33:29.846Z,34.44
2019-03-20T10:34:39.167Z,33.97
2019-03-20T10:35:29.836Z,33.68
2019-03-20T10:36:29.829Z,33.68
2019-03-20T10:37:29.822Z,33.58
2019-03-20T10:38:29.836Z,33.58
2019-03-20T10:39:29.838Z,33.80
2019-03-20T10:40:29.800Z,33.70
2019-03-20T10:41:29.786Z,33.70
2019-03-20T10:42:29.789Z,32.64
2019-03-20T10:43:29.786Z,31.67
2019-03-20T10:44:29.770Z,31.48
2019-03-20T10:45:29.765Z,31.96
2019-03-20T10:46:29.762Z,31.38
2019-03-20T10:47:29.752Z,31.76
2019-03-20T10:48:29.770Z,31.48
2019-03-20T10:49:29.747Z,31.86
2019-03-20T10:50:29.735Z,31.49
2019-03-20T10:51:29.731Z,31.98
2019-03-20T10:52:29.722Z,31.60
2019-03-20T10:53:29.722Z,31.60
2019-03-20T10:54:29.709Z,30.93
2019-03-20T10:55:29.705Z,29.86
2019-03-20T10:56:29.702Z,29.86
2019-03-20T10:57:29.692Z,29.86
2019-03-20T10:58:29.687Z,30.25
2019-03-20T10:59:29.674Z,30.25
2019-03-20T11:00:29.687Z,30.17
2019-03-20T11:01:29.675Z,29.69
2019-03-20T11:02:29.665Z,29.47
2019-03-20T11:03:29.669Z,28.81
2019-03-20T11:04:29.653Z,28.70
2019-03-20T11:05:29.654Z,28.51
2019-03-20T11:06:29.642Z,29.28
2019-03-20T11:07:29.638Z,29.28
2019-03-20T11:08:29.633Z,29.77
2019-03-20T11:09:29.636Z,29.28
2019-03-20T11:10:29.627Z,28.99
2019-03-20T11:11:29.614Z,28.51
2019-03-20T11:12:29.611Z,28.11
2019-03-20T11:13:29.603Z,28.11
2019-03-20T11:14:29.601Z,28.78
2019-03-20T11:15:29.914Z,29.56
2019-03-20T11:16:29.591Z,29.27
2019-03-20T11:17:29.580Z,28.78
2019-03-20T11:18:29.579Z,28.78
2019-03-20T11:19:29.575Z,28.78
2019-03-20T11:20:29.566Z,28.80
2019-03-20T11:21:29.557Z,29.38
2019-03-20T11:22:29.549Z,29.09
2019-03-20T11:23:29.556Z,29.01
2019-03-20T11:24:29.544Z,28.72
2019-03-20T11:25:29.541Z,28.14
2019-03-20T11:26:29.535Z,27.64
2019-03-20T11:27:29.528Z,27.55
2019-03-20T11:28:29.521Z,27.83
2019-03-20T11:29:29.518Z,28.13
2019-03-20T11:30:29.513Z,28.81
2019-03-20T11:31:29.512Z,28.81
2019-03-20T11:32:29.534Z,27.85
2019-03-20T11:33:29.500Z,27.56
2019-03-20T11:34:29.488Z,27.75
2019-03-20T11:35:29.492Z,27.66
2019-03-20T11:36:29.482Z,27.66
2019-03-20T11:37:29.476Z,27.94
2019-03-20T11:38:29.474Z,27.76
2019-03-20T11:39:30.122Z,26.99
2019-03-20T11:40:29.476Z,26.89
2019-03-20T11:41:29.449Z,27.37
2019-03-20T11:42:29.475Z,27.19
2019-03-20T11:43:29.450Z,27.37
2019-03-20T11:44:29.445Z,27.37
2019-03-20T11:45:29.462Z,27.57
2019-03-20T11:46:29.430Z,27.37
2019-03-20T11:47:29.428Z,27.09
2019-03-20T11:48:29.420Z,27.00
2019-03-20T11:49:29.416Z,27.00
2019-03-20T11:50:29.414Z,26.72
2019-03-20T11:51:29.406Z,26.90
2019-03-20T11:52:29.403Z,27.40
2019-03-20T11:53:29.394Z,26.92
2019-03-20T11:54:29.393Z,26.63
2019-03-20T11:55:29.389Z,26.25
2019-03-20T11:56:29.383Z,26.53
2019-03-20T11:57:29.381Z,25.56
2019-03-20T11:58:29.384Z,25.56
2019-03-20T11:59:29.373Z,25.94
2019-03-20T12:00:29.366Z,25.94
2019-03-20T12:01:29.362Z,25.95
2019-03-20T12:02:29.358Z,25.65
2019-03-20T12:03:29.355Z,25.65
2019-03-20T12:04:29.353Z,25.65
2019-03-20T12:05:29.347Z,25.26
2019-03-20T12:06:29.348Z,25.36
2019-03-20T12:07:29.339Z,25.55
2019-03-20T12:08:29.333Z,25.74
2019-03-20T12:09:40.462Z,25.74
2019-03-20T12:10:29.322Z,25.74
2019-03-20T12:11:29.324Z,25.47
2019-03-20T12:12:29.326Z,25.27
2019-03-20T12:13:29.310Z,25.08
2019-03-20T12:14:29.308Z,24.88
2019-03-20T12:15:29.322Z,25.08
2019-03-20T12:16:29.301Z,24.79
2019-03-20T12:17:29.295Z,24.88
2019-03-20T12:18:29.291Z,24.79
2019-03-20T12:19:29.290Z,25.27
2019-03-20T12:20:29.289Z,25.66
2019-03-20T12:21:29.285Z,25.37
2019-03-20T12:22:29.277Z,25.47
2019-03-20T12:23:29.273Z,24.88
2019-03-20T12:24:29.271Z,24.11
2019-03-20T12:25:29.267Z,24.01
2019-03-20T12:26:29.262Z,24.49
2019-03-20T12:27:29.261Z,24.49
2019-03-20T12:28:29.254Z,24.10
2019-03-20T12:29:29.250Z,23.81
2019-03-20T12:30:29.250Z,24.29
2019-03-20T12:31:29.246Z,24.49
2019-03-20T12:32:29.240Z,24.39
2019-03-20T12:33:29.234Z,24.11
2019-03-20T12:34:29.231Z,23.82
2019-03-20T12:35:29.230Z,23.53
2019-03-20T12:36:29.228Z,23.92
2019-03-20T12:37:29.222Z,23.92
2019-03-20T12:38:29.215Z,24.12
2019-03-20T12:39:29.216Z,24.51
2019-03-20T12:40:29.213Z,24.33
2019-03-20T12:41:29.207Z,24.23
2019-03-20T12:42:29.205Z,23.94
2019-03-20T12:43:29.201Z,23.65
2019-03-20T12:44:29.198Z,23.46
2019-03-20T12:45:29.194Z,22.68
2019-03-20T12:46:40.995Z,22.49
2019-03-20T12:47:29.192Z,22.86
2019-03-20T12:48:29.187Z,23.65
2019-03-20T12:49:29.189Z,23.74
2019-03-20T12:50:29.180Z,23.46
2019-03-20T12:51:29.178Z,23.16
2019-03-20T12:52:29.176Z,23.55